Swan Island, Australia
Current Conditions -  °F | °C
As of 12:30 AM on Monday 22 Dec 2014 (Local Time) from YMLT Reporting Station
Overcast Overcast  
Wind Chill: 57°   Ceiling: 1100
Heat Index: 57°   Visibility: 6mi
Dew Point: 52°   Wind: 8mph
Humidity: 82%   Direction: 10°N
Pressure: 29.94"   Gusts: NA
Location:  40.73°S, 148.12°E
Report Text: YMLT 211330Z AUTO 01007KT 9999 // OVC011 14/11 Q1014
Loading
Personal Weather Stations






























Interactive Weather Map New forecast layout! Learn more

10-Day Weather Forecast

Advertisements
Track Severe Weather on mobile